createdAt,value
2019-02-24T00:02:08.519Z,14.50
2019-02-24T00:04:37.605Z,12.70
2019-02-24T00:07:06.702Z,13.20
2019-02-24T00:09:35.797Z,13.17
2019-02-24T00:12:04.949Z,13.37
2019-02-24T00:14:34.111Z,14.70
2019-02-24T00:17:03.264Z,13.67
2019-02-24T00:19:32.185Z,13.33
2019-02-24T00:22:01.293Z,14.80
2019-02-24T00:24:30.463Z,13.90
2019-02-24T00:26:59.545Z,14.67
2019-02-24T00:29:28.628Z,15.33
2019-02-24T00:31:57.742Z,15.50
2019-02-24T00:34:26.844Z,15.73
2019-02-24T00:36:55.957Z,14.10
2019-02-24T00:39:25.034Z,13.40
2019-02-24T00:41:54.165Z,13.30
2019-02-24T00:44:23.175Z,14.63
2019-02-24T00:46:52.290Z,13.33
2019-02-24T00:49:21.285Z,13.10
2019-02-24T00:51:50.532Z,13.47
2019-02-24T00:54:19.624Z,13.60
2019-02-24T00:56:48.697Z,13.93
2019-02-24T00:59:17.869Z,14.03
2019-02-24T01:01:47.005Z,13.70
2019-02-24T01:04:16.479Z,13.73
2019-02-24T01:06:45.670Z,12.43
2019-02-24T01:09:14.773Z,12.70
2019-02-24T01:11:43.895Z,13.73
2019-02-24T01:14:12.996Z,14.80
2019-02-24T01:16:42.081Z,13.43
2019-02-24T01:19:11.184Z,13.57
2019-02-24T01:21:40.225Z,12.50
2019-02-24T01:24:09.248Z,12.37
2019-02-24T01:26:38.329Z,11.87
2019-02-24T01:29:07.348Z,12.30
2019-02-24T01:31:36.429Z,12.73
2019-02-24T01:34:05.535Z,12.07
2019-02-24T01:36:34.590Z,12.00
2019-02-24T01:39:04.148Z,12.00
2019-02-24T01:41:33.418Z,13.30
2019-02-24T01:44:02.642Z,12.27
2019-02-24T01:46:31.630Z,12.90
2019-02-24T01:49:00.731Z,12.20
2019-02-24T01:51:29.903Z,13.23
2019-02-24T01:53:59.012Z,12.40
2019-02-24T01:56:29.065Z,14.30
2019-02-24T01:58:58.078Z,13.27
2019-02-24T02:01:27.215Z,13.93
2019-02-24T02:03:56.186Z,12.73
2019-02-24T02:06:25.288Z,16.83
2019-02-24T02:08:54.375Z,14.43
2019-02-24T02:11:23.508Z,14.57
2019-02-24T02:13:52.595Z,12.83
2019-02-24T02:16:21.663Z,12.10
2019-02-24T02:18:50.753Z,12.83
2019-02-24T02:21:19.815Z,10.87
2019-02-24T02:23:48.930Z,11.37
2019-02-24T02:26:17.940Z,12.77
2019-02-24T02:28:47.017Z,11.47
2019-02-24T02:31:16.180Z,11.93
2019-02-24T02:33:45.317Z,11.53
2019-02-24T02:36:14.434Z,11.40
2019-02-24T02:38:43.567Z,11.80
2019-02-24T02:41:12.854Z,12.60
2019-02-24T02:43:42.050Z,10.93
2019-02-24T02:46:11.150Z,10.33
2019-02-24T02:48:40.633Z,10.67
2019-02-24T02:51:10.197Z,10.10
2019-02-24T02:53:39.355Z,10.57
2019-02-24T02:56:08.393Z,10.17
2019-02-24T02:58:37.546Z,9.87
2019-02-24T03:01:06.659Z,10.10
2019-02-24T03:03:35.797Z,9.70
2019-02-24T03:06:16.305Z,10.37
2019-02-24T03:08:46.423Z,10.73
2019-02-24T03:11:16.206Z,9.73
2019-02-24T03:13:45.349Z,9.10
2019-02-24T03:16:16.162Z,9.30
2019-02-24T03:18:45.268Z,9.73
2019-02-24T03:21:14.377Z,10.07
2019-02-24T03:23:43.522Z,8.97
2019-02-24T03:26:12.625Z,9.53
2019-02-24T03:28:41.755Z,9.17
2019-02-24T03:31:10.868Z,8.87
2019-02-24T03:33:40.042Z,8.73
2019-02-24T03:36:09.199Z,8.67
2019-02-24T03:38:38.416Z,8.90
2019-02-24T03:41:07.523Z,8.50
2019-02-24T03:43:36.680Z,9.00
2019-02-24T03:46:05.794Z,9.93
2019-02-24T03:48:34.924Z,9.07
2019-02-24T03:51:04.057Z,10.30
2019-02-24T03:53:33.387Z,9.63
2019-02-24T03:56:02.497Z,9.10
2019-02-24T03:58:31.662Z,9.37
2019-02-24T04:01:00.771Z,9.30
2019-02-24T04:03:29.992Z,7.97
2019-02-24T04:05:59.149Z,7.83
2019-02-24T04:08:28.275Z,7.90
2019-02-24T04:10:57.522Z,9.07
2019-02-24T04:13:26.620Z,8.67
2019-02-24T04:15:55.780Z,8.63
2019-02-24T04:18:24.908Z,9.80
2019-02-24T04:20:54.045Z,8.40
2019-02-24T04:23:23.391Z,7.93
2019-02-24T04:25:53.689Z,8.87
2019-02-24T04:28:23.326Z,9.40
2019-02-24T04:30:55.934Z,8.93
2019-02-24T04:33:25.062Z,9.47
2019-02-24T04:35:54.219Z,9.10
2019-02-24T04:38:23.576Z,8.67
2019-02-24T04:40:52.814Z,8.23
2019-02-24T04:43:21.981Z,7.30
2019-02-24T04:45:51.130Z,7.23
2019-02-24T04:48:20.235Z,8.23
2019-02-24T04:50:49.372Z,7.40
2019-02-24T04:53:18.598Z,8.70
2019-02-24T04:55:47.748Z,8.17
2019-02-24T04:58:16.868Z,7.50
2019-02-24T05:00:46.061Z,6.50
2019-02-24T05:03:15.124Z,6.33
2019-02-24T05:05:44.266Z,6.23
2019-02-24T05:08:13.372Z,6.93
2019-02-24T05:10:42.524Z,6.60
2019-02-24T05:13:11.643Z,6.40
2019-02-24T05:15:40.801Z,6.13
2019-02-24T05:18:09.895Z,6.50
2019-02-24T05:20:39.036Z,6.57
2019-02-24T05:23:08.186Z,6.10
2019-02-24T05:25:37.328Z,6.10
2019-02-24T05:28:06.510Z,6.10
2019-02-24T05:30:35.663Z,6.60
2019-02-24T05:33:04.873Z,6.60
2019-02-24T05:35:33.997Z,7.47
2019-02-24T05:38:03.125Z,7.53
2019-02-24T05:40:32.163Z,8.20
2019-02-24T05:43:01.310Z,12.03
2019-02-24T05:45:30.565Z,11.90
2019-02-24T05:47:59.711Z,9.43
2019-02-24T05:50:28.858Z,8.67
2019-02-24T05:52:57.968Z,7.37
2019-02-24T05:55:27.165Z,6.70
2019-02-24T05:57:56.259Z,7.27
2019-02-24T06:00:25.405Z,7.07
2019-02-24T06:02:54.679Z,8.10
2019-02-24T06:05:23.847Z,7.70
2019-02-24T06:07:52.985Z,7.60
2019-02-24T06:10:22.219Z,8.17
2019-02-24T06:12:51.395Z,9.30
2019-02-24T06:15:20.594Z,9.90
2019-02-24T06:17:49.734Z,7.27
2019-02-24T06:20:19.384Z,6.13
2019-02-24T06:22:49.156Z,5.33
2019-02-24T06:25:18.561Z,6.00
2019-02-24T06:27:47.627Z,5.67
2019-02-24T06:30:16.827Z,6.43
2019-02-24T06:32:46.022Z,6.43
2019-02-24T06:35:15.196Z,5.73
2019-02-24T06:37:44.404Z,6.37
2019-02-24T06:40:13.624Z,6.13
2019-02-24T06:42:42.839Z,5.70
2019-02-24T06:45:12.292Z,6.00
2019-02-24T06:47:41.599Z,11.30
2019-02-24T06:50:11.857Z,14.13
2019-02-24T06:52:41.016Z,12.47
2019-02-24T06:55:11.434Z,11.50
2019-02-24T06:57:40.815Z,11.67
2019-02-24T07:00:14.214Z,10.00
2019-02-24T07:02:42.450Z,9.57
2019-02-24T07:05:11.647Z,9.20
2019-02-24T07:07:40.775Z,9.30
2019-02-24T07:10:10.031Z,9.23
2019-02-24T07:12:39.257Z,28.87
2019-02-24T07:15:09.380Z,17.23
2019-02-24T07:17:39.518Z,15.83
2019-02-24T07:20:09.111Z,15.47
2019-02-24T07:22:38.541Z,15.73
2019-02-24T07:25:08.301Z,15.83
2019-02-24T07:27:37.837Z,17.37
2019-02-24T07:30:08.178Z,22.70
2019-02-24T07:32:37.426Z,24.87
2019-02-24T07:35:06.746Z,29.07
2019-02-24T07:37:36.023Z,37.23
2019-02-24T07:40:06.033Z,37.17
2019-02-24T07:42:35.292Z,38.60
2019-02-24T07:45:04.571Z,33.20
2019-02-24T07:47:33.894Z,28.97
2019-02-24T07:50:03.032Z,33.27
2019-02-24T07:52:32.328Z,29.03
2019-02-24T07:55:01.733Z,25.83
2019-02-24T07:57:30.934Z,24.87
2019-02-24T08:00:00.057Z,26.67
2019-02-24T08:02:29.417Z,29.17
2019-02-24T08:04:58.903Z,28.43
2019-02-24T08:07:28.064Z,24.13
2019-02-24T08:09:57.197Z,20.63
2019-02-24T08:12:26.471Z,20.33
2019-02-24T08:14:55.577Z,13.80
2019-02-24T08:17:26.474Z,12.70
2019-02-24T08:19:55.583Z,12.20
2019-02-24T08:22:25.103Z,9.90
2019-02-24T08:24:54.208Z,7.47
2019-02-24T08:27:23.336Z,6.53
2019-02-24T08:29:52.458Z,11.33
2019-02-24T08:32:21.787Z,10.57
2019-02-24T08:34:52.912Z,10.50
2019-02-24T08:37:21.746Z,10.43
2019-02-24T08:39:50.886Z,9.77
2019-02-24T08:42:20.175Z,8.20
2019-02-24T08:44:49.274Z,5.87
2019-02-24T08:47:18.378Z,6.57
2019-02-24T08:49:48.193Z,6.47
2019-02-24T08:52:17.292Z,5.93
2019-02-24T08:54:46.348Z,6.53
2019-02-24T08:57:15.555Z,6.47
2019-02-24T08:59:44.744Z,5.77
2019-02-24T09:02:33.866Z,6.50
2019-02-24T09:04:52.530Z,5.63
2019-02-24T09:07:22.076Z,5.97
2019-02-24T09:09:51.207Z,5.90
2019-02-24T09:12:20.411Z,5.43
2019-02-24T09:14:49.496Z,5.33
2019-02-24T09:17:18.611Z,5.50
2019-02-24T09:19:47.771Z,5.67
2019-02-24T09:22:16.892Z,6.60
2019-02-24T09:24:46.190Z,6.80
2019-02-24T09:27:15.394Z,10.80
2019-02-24T09:29:44.635Z,7.43
2019-02-24T09:32:13.889Z,6.20
2019-02-24T09:34:43.115Z,5.93
2019-02-24T09:37:12.217Z,5.87
2019-02-24T09:39:41.297Z,5.57
2019-02-24T09:42:10.408Z,6.20
2019-02-24T09:44:39.550Z,5.70
2019-02-24T09:47:08.839Z,5.93
2019-02-24T09:49:37.997Z,6.33
2019-02-24T09:52:07.203Z,13.33
2019-02-24T09:54:36.349Z,9.80
2019-02-24T09:57:05.530Z,11.43
2019-02-24T09:59:34.697Z,7.40
2019-02-24T10:02:03.891Z,7.40
2019-02-24T10:04:33.143Z,7.13
2019-02-24T10:07:02.316Z,6.33
2019-02-24T10:09:34.961Z,6.97
2019-02-24T10:12:09.745Z,6.23
2019-02-24T10:14:42.130Z,5.60
2019-02-24T10:17:28.541Z,5.47
2019-02-24T10:20:02.928Z,4.87
2019-02-24T10:22:33.483Z,5.20
2019-02-24T10:25:02.518Z,5.10
2019-02-24T10:27:31.736Z,4.63
2019-02-24T10:30:01.075Z,5.40
2019-02-24T10:32:30.638Z,5.17
2019-02-24T10:34:59.767Z,5.07
2019-02-24T10:37:36.278Z,5.77
2019-02-24T10:40:07.256Z,5.00
2019-02-24T10:42:42.304Z,6.03
2019-02-24T10:45:12.451Z,4.60
2019-02-24T10:47:44.007Z,4.80
2019-02-24T10:50:15.970Z,4.90
2019-02-24T10:52:45.568Z,5.00
2019-02-24T10:55:15.014Z,5.07
2019-02-24T10:57:48.728Z,4.93
2019-02-24T11:00:20.130Z,4.50
2019-02-24T11:02:51.502Z,4.57
2019-02-24T11:05:20.715Z,5.17
2019-02-24T11:07:49.796Z,5.20
2019-02-24T11:10:19.282Z,5.60
2019-02-24T11:12:48.373Z,4.90
2019-02-24T11:15:19.836Z,5.30
2019-02-24T11:17:49.049Z,4.87
2019-02-24T11:20:18.208Z,5.33
2019-02-24T11:22:49.687Z,5.27
2019-02-24T11:25:18.756Z,5.30
2019-02-24T11:27:48.026Z,5.37
2019-02-24T11:30:17.328Z,5.50
2019-02-24T11:32:48.944Z,6.07
2019-02-24T11:35:27.008Z,6.10
2019-02-24T11:37:57.416Z,5.73
2019-02-24T11:40:29.873Z,6.70
2019-02-24T11:43:01.219Z,6.97
2019-02-24T11:45:30.334Z,6.60
2019-02-24T11:47:59.550Z,6.93
2019-02-24T11:50:31.517Z,7.03
2019-02-24T11:53:00.677Z,7.27
2019-02-24T11:55:34.300Z,6.67
2019-02-24T11:58:03.138Z,6.63
2019-02-24T12:00:37.647Z,6.83
2019-02-24T12:03:12.444Z,7.00
2019-02-24T12:05:46.474Z,7.00
2019-02-24T12:08:19.498Z,7.47
2019-02-24T12:10:57.675Z,6.57
2019-02-24T12:13:28.378Z,7.37
2019-02-24T12:16:04.331Z,6.50
2019-02-24T12:18:38.319Z,6.30
2019-02-24T12:21:11.000Z,6.57
2019-02-24T12:23:48.099Z,6.60
2019-02-24T12:26:19.848Z,6.23
2019-02-24T12:28:55.050Z,6.47
2019-02-24T12:31:58.023Z,6.67
2019-02-24T12:34:30.723Z,6.20
2019-02-24T12:37:07.360Z,6.13
2019-02-24T12:39:39.660Z,6.07
2019-02-24T12:42:22.238Z,6.50
2019-02-24T12:45:03.315Z,6.50
2019-02-24T12:51:26.639Z,5.63
2019-02-24T12:54:06.507Z,5.90
2019-02-24T12:56:46.726Z,6.07
2019-02-24T12:59:19.839Z,6.10
2019-02-24T13:01:49.910Z,6.53
2019-02-24T13:04:28.908Z,6.63
2019-02-24T13:07:04.389Z,6.40
2019-02-24T13:09:37.004Z,6.03
2019-02-24T13:12:15.459Z,6.23
2019-02-24T13:14:47.683Z,6.50
2019-02-24T13:17:23.452Z,6.20
2019-02-24T13:19:56.663Z,6.13
2019-02-24T13:22:35.835Z,6.30
2019-02-24T13:25:06.480Z,5.43
2019-02-24T13:27:35.587Z,5.47
2019-02-24T13:30:11.355Z,6.00
2019-02-24T13:32:40.599Z,5.87
2019-02-24T13:35:09.779Z,5.80
2019-02-24T13:37:38.867Z,8.05
2019-02-24T13:40:08.601Z,5.97
2019-02-24T13:42:37.620Z,6.00
2019-02-24T13:45:09.141Z,5.60
2019-02-24T13:47:38.242Z,6.17
2019-02-24T13:50:07.333Z,5.97
2019-02-24T13:52:36.551Z,5.33
2019-02-24T13:55:07.590Z,5.53
2019-02-24T13:57:36.658Z,5.80
2019-02-24T14:00:06.998Z,5.17
2019-02-24T14:02:37.181Z,5.47
2019-02-24T14:05:06.939Z,5.50
2019-02-24T14:07:37.866Z,5.80
2019-02-24T14:10:08.748Z,5.53
2019-02-24T14:12:38.096Z,6.03
2019-02-24T14:15:07.607Z,5.73
2019-02-24T14:17:36.610Z,5.30
2019-02-24T14:20:06.208Z,5.60
2019-02-24T14:22:36.628Z,5.10
2019-02-24T14:25:06.386Z,4.93
2019-02-24T14:27:36.072Z,5.27
2019-02-24T14:30:07.736Z,5.40
2019-02-24T14:32:37.911Z,5.50
2019-02-24T14:35:15.216Z,5.40
2019-02-24T14:37:47.650Z,5.63
2019-02-24T14:40:16.709Z,10.17
2019-02-24T14:42:45.907Z,10.30
2019-02-24T14:45:15.973Z,11.57
2019-02-24T14:47:47.297Z,8.23
2019-02-24T14:50:17.439Z,10.27
2019-02-24T14:52:50.238Z,7.30
2019-02-24T14:55:21.526Z,7.07
2019-02-24T14:57:50.785Z,7.27
2019-02-24T15:00:21.172Z,6.87
2019-02-24T15:02:58.151Z,6.57
2019-02-24T15:05:28.393Z,6.20
2019-02-24T15:07:58.145Z,7.10
2019-02-24T15:10:29.294Z,6.37
2019-02-24T15:12:58.282Z,7.23
2019-02-24T15:15:33.093Z,7.17
2019-02-24T15:17:58.650Z,6.70
2019-02-24T15:20:27.795Z,7.30
2019-02-24T15:22:56.911Z,7.10
2019-02-24T15:25:26.023Z,6.87
2019-02-24T15:27:55.361Z,6.33
2019-02-24T15:30:29.759Z,6.40
2019-02-24T15:33:09.072Z,6.13
2019-02-24T15:35:39.846Z,6.00
2019-02-24T15:38:13.789Z,5.80
2019-02-24T15:40:42.995Z,5.63
2019-02-24T15:43:12.284Z,5.60
2019-02-24T15:45:43.925Z,5.53
2019-02-24T15:48:14.783Z,5.93
2019-02-24T15:50:46.955Z,6.03
2019-02-24T15:53:18.306Z,5.33
2019-02-24T15:55:50.995Z,5.77
2019-02-24T15:58:20.268Z,5.73
2019-02-24T16:00:49.314Z,5.60
2019-02-24T16:03:21.618Z,6.13
2019-02-24T16:05:52.380Z,6.10
2019-02-24T16:08:21.583Z,5.63
2019-02-24T16:10:51.969Z,6.30
2019-02-24T16:13:25.304Z,5.67
2019-02-24T16:15:54.650Z,5.80
2019-02-24T16:18:25.865Z,6.33
2019-02-24T16:20:54.949Z,5.93
2019-02-24T16:23:24.406Z,7.33
2019-02-24T16:25:54.016Z,7.03
2019-02-24T16:28:24.622Z,6.93
2019-02-24T16:31:03.478Z,7.30
2019-02-24T16:33:32.635Z,7.20
2019-02-24T16:36:02.096Z,7.93
2019-02-24T16:38:31.290Z,17.17
2019-02-24T16:41:00.423Z,18.07
2019-02-24T16:43:29.480Z,8.70
2019-02-24T16:45:58.494Z,7.07
2019-02-24T16:48:27.566Z,6.20
2019-02-24T16:50:56.702Z,6.50
2019-02-24T16:53:25.886Z,7.13
2019-02-24T16:55:55.067Z,7.90
2019-02-24T16:58:24.184Z,7.60
2019-02-24T17:00:53.316Z,8.10
2019-02-24T17:03:22.709Z,6.83
2019-02-24T17:05:51.839Z,6.00
2019-02-24T17:08:21.234Z,6.17
2019-02-24T17:10:50.312Z,6.60
2019-02-24T17:13:19.359Z,7.17
2019-02-24T17:15:49.306Z,7.43
2019-02-24T17:18:19.718Z,7.43
2019-02-24T17:20:49.084Z,7.73
2019-02-24T17:23:20.277Z,7.50
2019-02-24T17:25:49.388Z,7.00
2019-02-24T17:28:18.615Z,7.33
2019-02-24T17:30:47.829Z,7.47
2019-02-24T17:33:17.285Z,7.47
2019-02-24T17:35:47.845Z,6.27
2019-02-24T17:38:16.991Z,6.83
2019-02-24T17:40:46.112Z,7.30
2019-02-24T17:43:15.129Z,5.93
2019-02-24T17:45:51.290Z,5.63
2019-02-24T17:48:20.346Z,5.30
2019-02-24T17:50:51.629Z,5.77
2019-02-24T17:53:20.808Z,6.03
2019-02-24T17:55:55.030Z,5.90
2019-02-24T17:58:24.204Z,6.20
2019-02-24T18:00:59.847Z,5.47
2019-02-24T18:03:39.054Z,6.23
2019-02-24T18:06:02.359Z,5.80
2019-02-24T18:08:31.709Z,5.37
2019-02-24T18:11:00.782Z,5.67
2019-02-24T18:13:29.925Z,5.50
2019-02-24T18:15:59.243Z,5.57
2019-02-24T18:18:32.994Z,5.57
2019-02-24T18:21:02.174Z,5.40
2019-02-24T18:23:31.269Z,5.47
2019-02-24T18:26:00.364Z,5.77
2019-02-24T18:28:29.506Z,5.63
2019-02-24T18:30:58.779Z,5.97
2019-02-24T18:33:27.804Z,5.80
2019-02-24T18:35:57.030Z,6.00
2019-02-24T18:38:27.977Z,5.90
2019-02-24T18:40:56.811Z,6.17
2019-02-24T18:43:25.890Z,13.83
2019-02-24T18:45:55.404Z,8.10
2019-02-24T18:48:24.533Z,6.90
2019-02-24T18:50:53.744Z,6.80
2019-02-24T18:53:24.945Z,7.00
2019-02-24T18:55:54.065Z,9.43
2019-02-24T18:58:23.238Z,8.60
2019-02-24T19:00:52.392Z,8.70
2019-02-24T19:03:21.467Z,8.13
2019-02-24T19:05:50.686Z,7.80
2019-02-24T19:08:19.824Z,6.77
2019-02-24T19:10:48.975Z,7.27
2019-02-24T19:13:18.113Z,7.70
2019-02-24T19:15:47.217Z,7.20
2019-02-24T19:18:16.375Z,6.70
2019-02-24T19:20:45.641Z,7.20
2019-02-24T19:23:14.984Z,6.97
2019-02-24T19:25:44.184Z,6.90
2019-02-24T19:28:13.334Z,7.50
2019-02-24T19:30:43.478Z,7.37
2019-02-24T19:33:12.752Z,7.17
2019-02-24T19:35:41.882Z,7.67
2019-02-24T19:38:11.004Z,7.77
2019-02-24T19:40:40.289Z,8.17
2019-02-24T19:43:09.490Z,7.20
2019-02-24T19:45:38.626Z,7.53
2019-02-24T19:48:08.264Z,7.90
2019-02-24T19:50:37.581Z,8.07
2019-02-24T19:53:06.767Z,8.37
2019-02-24T19:55:36.011Z,8.10
2019-02-24T19:58:05.305Z,7.80
2019-02-24T20:00:34.503Z,9.27
2019-02-24T20:03:03.804Z,8.10
2019-02-24T20:05:33.158Z,8.60
2019-02-24T20:08:02.383Z,8.93
2019-02-24T20:10:31.692Z,8.20
2019-02-24T20:13:00.869Z,7.90
2019-02-24T20:15:30.018Z,8.17
2019-02-24T20:17:59.086Z,8.60
2019-02-24T20:20:28.178Z,9.07
2019-02-24T20:22:57.426Z,9.17
2019-02-24T20:25:26.622Z,8.10
2019-02-24T20:27:55.738Z,8.03
2019-02-24T20:30:27.320Z,8.30
2019-02-24T20:32:57.030Z,8.37
2019-02-24T20:35:27.102Z,9.07
2019-02-24T20:37:56.175Z,8.70
2019-02-24T20:40:25.269Z,7.67
2019-02-24T20:42:54.389Z,7.00
2019-02-24T20:45:30.370Z,8.00
2019-02-24T20:47:59.422Z,7.20
2019-02-24T20:50:28.647Z,7.70
2019-02-24T20:52:57.821Z,7.40
2019-02-24T20:55:26.967Z,7.33
2019-02-24T20:57:56.343Z,6.97
2019-02-24T21:00:31.138Z,7.27
2019-02-24T21:03:01.506Z,7.27
2019-02-24T21:05:31.355Z,9.07
2019-02-24T21:08:00.761Z,8.60
2019-02-24T21:10:32.422Z,10.83
2019-02-24T21:13:04.724Z,9.80
2019-02-24T21:15:40.188Z,7.17
2019-02-24T21:18:40.352Z,8.23
2019-02-24T21:21:29.636Z,8.80
2019-02-24T21:23:58.751Z,10.40
2019-02-24T21:26:27.944Z,10.57
2019-02-24T21:28:57.058Z,11.67
2019-02-24T21:31:26.235Z,11.87
2019-02-24T21:33:55.317Z,11.63
2019-02-24T21:36:24.518Z,10.70
2019-02-24T21:38:53.626Z,9.17
2019-02-24T21:41:22.774Z,7.70
2019-02-24T21:44:07.136Z,7.70
2019-02-24T21:46:36.274Z,8.60
2019-02-24T21:49:05.402Z,8.67
2019-02-24T21:51:38.119Z,9.30
2019-02-24T21:54:07.263Z,8.87
2019-02-24T21:56:36.360Z,16.03
2019-02-24T21:59:05.534Z,18.33
2019-02-24T22:01:34.579Z,16.57
2019-02-24T22:04:03.703Z,14.00
2019-02-24T22:06:32.840Z,11.47
2019-02-24T22:09:01.930Z,8.57
2019-02-24T22:11:40.109Z,8.70
2019-02-24T22:14:09.244Z,8.97
2019-02-24T22:16:38.339Z,13.00
2019-02-24T22:19:07.449Z,20.60
2019-02-24T22:21:36.678Z,29.07
2019-02-24T22:24:05.781Z,32.20
2019-02-24T22:26:34.869Z,34.63
2019-02-24T22:29:04.016Z,41.30
2019-02-24T22:31:33.105Z,26.53
2019-02-24T22:34:02.252Z,23.67
2019-02-24T22:36:34.281Z,26.77
2019-02-24T22:39:03.524Z,26.07
2019-02-24T22:41:32.649Z,25.33
2019-02-24T22:44:01.788Z,20.87
2019-02-24T22:46:30.914Z,17.23
2019-02-24T22:49:00.031Z,19.90
2019-02-24T22:51:29.141Z,21.20
2019-02-24T22:53:58.288Z,18.20
2019-02-24T22:56:27.397Z,24.67
2019-02-24T22:58:56.498Z,17.30
2019-02-24T23:01:29.739Z,12.60
2019-02-24T23:04:10.172Z,11.20
2019-02-24T23:06:39.307Z,17.40
2019-02-24T23:09:12.665Z,17.97
2019-02-24T23:11:41.766Z,18.40
2019-02-24T23:14:10.898Z,20.97
2019-02-24T23:16:40.021Z,23.73
2019-02-24T23:19:18.130Z,17.23
2019-02-24T23:21:47.245Z,9.93
2019-02-24T23:24:18.810Z,10.37
2019-02-24T23:26:47.958Z,13.90
2019-02-24T23:29:17.064Z,15.27
2019-02-24T23:31:46.558Z,15.53
2019-02-24T23:34:15.708Z,16.47
2019-02-24T23:36:44.829Z,13.47
2019-02-24T23:39:16.483Z,15.23
2019-02-24T23:41:46.057Z,13.07
2019-02-24T23:44:15.182Z,16.33
2019-02-24T23:46:47.161Z,20.60
2019-02-24T23:49:16.155Z,15.57
2019-02-24T23:51:45.245Z,12.13
2019-02-24T23:54:14.359Z,10.87
2019-02-24T23:56:55.683Z,10.60
2019-02-24T23:59:28.132Z,12.20
